Time;durP1;ratioP1;P1;durP2;ratioP2;P2;SDS_P1;SDS_P2;PMS_P1;PMS_P2;Temp;Humidity;BMP_temperature;BMP_pressure;BME280_temperature;BME280_humidity;BME280_pressure;Samples;Min_cycle;Max_cycle;Signal;HPM_P1;HPM_P2
2021/09/05 00:00:12;;;;;;;9.45;6.80;;;13.80;94.40;;;;;;5077471;28;20249;-86
2021/09/05 00:02:39;;;;;;;8.95;7.28;;;13.70;95.10;;;;;;5083154;28;20284;-87
2021/09/05 00:05:14;;;;;;;10.35;7.20;;;13.60;95.70;;;;;;5082308;28;20221;-85
2021/09/05 00:07:41;;;;;;;7.40;6.63;;;13.80;95.00;;;;;;5084630;28;20205;-86
2021/09/05 00:10:10;;;;;;;8.38;7.00;;;13.50;94.40;;;;;;5075545;28;20268;-86
2021/09/05 00:12:53;;;;;;;9.50;6.80;;;13.20;95.30;;;;;;5084463;28;20233;-87
2021/09/05 00:15:21;;;;;;;7.93;6.50;;;12.90;96.40;;;;;;5083799;28;20692;-85
2021/09/05 00:17:48;;;;;;;9.18;7.10;;;13.10;97.30;;;;;;5086410;28;20225;-88
2021/09/05 00:20:16;;;;;;;9.43;6.47;;;13.00;96.20;;;;;;5086083;28;20276;-86
2021/09/05 00:22:48;;;;;;;10.07;7.22;;;13.20;96.50;;;;;;5084303;28;20208;-86
2021/09/05 00:25:19;;;;;;;8.57;6.93;;;13.60;96.30;;;;;;5075402;28;20220;-87
2021/09/05 00:27:46;;;;;;;8.48;6.63;;;13.60;96.00;;;;;;5089583;28;20257;-86
2021/09/05 00:30:15;;;;;;;7.70;6.60;;;13.70;94.30;;;;;;5083620;28;20255;-86
2021/09/05 00:32:42;;;;;;;8.32;7.03;;;13.50;95.50;;;;;;5071898;28;20222;-87
2021/09/05 00:35:10;;;;;;;6.90;6.20;;;13.30;95.50;;;;;;5082681;28;20217;-88
2021/09/05 00:37:37;;;;;;;8.77;6.93;;;13.30;96.20;;;;;;5083029;28;20252;-86
2021/09/05 00:40:06;;;;;;;8.32;7.03;;;13.40;96.30;;;;;;5073533;28;20256;-86
2021/09/05 00:42:33;;;;;;;9.13;7.32;;;13.50;95.50;;;;;;5078836;28;20239;-87
2021/09/05 00:45:01;;;;;;;7.60;6.80;;;13.30;95.20;;;;;;5082698;28;20260;-86
2021/09/05 00:47:29;;;;;;;8.20;6.40;;;13.30;95.20;;;;;;5083876;28;20244;-86
2021/09/05 00:49:56;;;;;;;8.50;6.68;;;13.00;96.40;;;;;;5081705;28;20280;-86
2021/09/05 00:52:26;;;;;;;11.77;6.88;;;13.10;96.30;;;;;;5074248;28;20205;-86
2021/09/05 00:54:53;;;;;;;8.30;6.50;;;13.40;96.20;;;;;;5080147;28;20228;-86
2021/09/05 00:57:44;;;;;;;7.72;6.68;;;13.30;95.20;;;;;;5075407;28;20255;-86
2021/09/05 01:00:19;;;;;;;7.13;6.13;;;13.60;95.70;;;;;;5071080;28;20225;-86
2021/09/05 01:02:48;;;;;;;9.13;7.13;;;13.50;94.70;;;;;;5085787;28;20196;-88
2021/09/05 01:05:15;;;;;;;7.05;5.93;;;14.10;94.30;;;;;;5086343;28;20280;-86
2021/09/05 01:07:42;;;;;;;7.72;6.40;;;13.90;93.30;;;;;;5087861;28;20217;-87
2021/09/05 01:10:13;;;;;;;7.18;6.07;;;13.70;93.60;;;;;;5082007;28;20249;-87
2021/09/05 01:12:41;;;;;;;6.97;6.28;;;13.50;94.40;;;;;;5084056;28;20205;-86
2021/09/05 01:15:09;;;;;;;9.15;6.45;;;13.50;94.50;;;;;;5086448;28;20232;-87
2021/09/05 01:17:37;;;;;;;49.75;27.20;;;13.20;94.30;;;;;;5079322;28;20260;-86
2021/09/05 01:20:10;;;;;;;30.45;18.27;;;13.10;96.10;;;;;;5086392;28;20228;-86
2021/09/05 01:22:37;;;;;;;10.00;7.13;;;13.30;95.70;;;;;;5084712;28;20605;-86
2021/09/05 01:25:05;;;;;;;10.05;7.65;;;13.00;95.20;;;;;;5086240;28;20288;-86
2021/09/05 01:27:34;;;;;;;7.57;6.60;;;13.00;95.90;;;;;;5085096;28;20224;-86
2021/09/05 01:30:01;;;;;;;8.57;6.07;;;13.00;95.70;;;;;;5085088;28;20323;-86
2021/09/05 01:32:28;;;;;;;8.98;6.45;;;13.00;95.30;;;;;;5081912;28;20221;-86
2021/09/05 01:34:55;;;;;;;8.02;5.93;;;13.00;95.60;;;;;;5081604;28;20235;-86
2021/09/05 01:37:22;;;;;;;7.93;6.28;;;13.00;96.00;;;;;;5088257;28;20192;-86
2021/09/05 01:39:49;;;;;;;7.57;6.07;;;13.20;95.50;;;;;;5081924;28;20264;-87
2021/09/05 01:42:16;;;;;;;7.05;6.03;;;13.20;95.00;;;;;;5077328;28;20245;-86
2021/09/05 01:44:45;;;;;;;9.48;6.05;;;13.20;94.90;;;;;;5084930;28;20242;-86
2021/09/05 01:47:12;;;;;;;7.40;6.20;;;13.30;94.70;;;;;;5072376;28;20256;-85
2021/09/05 01:49:39;;;;;;;6.88;5.90;;;13.60;94.30;;;;;;5073334;28;20239;-86
2021/09/05 01:52:07;;;;;;;5.60;5.05;;;13.80;93.40;;;;;;5070365;28;20288;-86
2021/09/05 01:54:34;;;;;;;7.28;5.85;;;13.80;92.70;;;;;;5083853;28;20312;-86
2021/09/05 01:57:01;;;;;;;8.50;5.63;;;13.80;92.80;;;;;;5086062;28;20276;-86
2021/09/05 01:59:28;;;;;;;10.93;6.30;;;13.70;92.80;;;;;;5082969;28;20312;-86
2021/09/05 02:01:56;;;;;;;7.85;5.57;;;13.40;92.80;;;;;;5080916;28;20398;-86
2021/09/05 02:04:23;;;;;;;8.38;6.20;;;13.50;93.90;;;;;;5089568;28;20224;-86
2021/09/05 02:06:50;;;;;;;8.13;6.00;;;13.80;92.80;;;;;;5084197;28;20197;-87
2021/09/05 02:09:18;;;;;;;6.35;5.57;;;13.90;91.80;;;;;;5081357;28;20197;-87
2021/09/05 02:11:45;;;;;;;7.30;5.32;;;13.70;91.70;;;;;;5079875;28;20197;-86
2021/09/05 02:14:12;;;;;;;8.13;5.75;;;13.60;92.40;;;;;;5083632;28;20205;-86
2021/09/05 02:16:39;;;;;;;7.13;5.63;;;14.00;91.70;;;;;;5086681;28;20877;-86
2021/09/05 02:19:07;;;;;;;7.05;5.72;;;14.00;91.20;;;;;;5083817;28;20221;-86
2021/09/05 02:21:34;;;;;;;6.40;5.60;;;13.60;91.50;;;;;;5082940;28;20259;-86
2021/09/05 02:24:01;;;;;;;7.10;5.85;;;13.40;92.60;;;;;;5082066;28;20280;-86
2021/09/05 02:26:28;;;;;;;7.78;5.60;;;13.30;92.70;;;;;;5078205;28;20286;-86
2021/09/05 02:28:55;;;;;;;6.07;5.30;;;13.20;92.70;;;;;;5082457;28;20503;-87
2021/09/05 02:31:22;;;;;;;6.45;5.47;;;13.00;93.40;;;;;;5082905;28;20224;-86
2021/09/05 02:33:49;;;;;;;7.22;5.72;;;12.90;93.40;;;;;;5083526;28;20311;-86
2021/09/05 02:36:18;;;;;;;7.25;5.72;;;12.70;94.00;;;;;;5080725;28;20309;-86
2021/09/05 02:38:45;;;;;;;6.50;5.45;;;12.60;94.90;;;;;;5080802;28;20232;-86
2021/09/05 02:41:12;;;;;;;7.07;5.60;;;12.30;95.20;;;;;;5075288;28;20268;-86
2021/09/05 02:43:39;;;;;;;7.38;5.55;;;12.30;95.00;;;;;;5082002;28;20221;-87
2021/09/05 02:46:08;;;;;;;6.80;5.57;;;12.20;95.90;;;;;;5078463;28;20245;-86
2021/09/05 02:48:35;;;;;;;6.47;5.65;;;12.20;95.30;;;;;;5074251;28;20571;-86
2021/09/05 02:51:03;;;;;;;6.13;5.40;;;12.10;96.20;;;;;;5080590;28;20320;-86
2021/09/05 02:53:31;;;;;;;7.50;5.40;;;12.50;94.90;;;;;;5086358;28;20303;-86
2021/09/05 02:55:58;;;;;;;6.57;5.50;;;12.70;94.50;;;;;;5084146;28;20586;-86
2021/09/05 02:58:26;;;;;;;6.43;5.35;;;12.70;93.90;;;;;;5078117;28;20262;-86
2021/09/05 03:00:53;;;;;;;6.13;5.53;;;12.40;94.20;;;;;;5080136;28;20648;-87
2021/09/05 03:03:20;;;;;;;6.40;5.28;;;12.20;95.00;;;;;;5077845;28;20233;-86
2021/09/05 03:05:47;;;;;;;7.15;5.60;;;12.20;95.20;;;;;;5071122;28;20260;-86
2021/09/05 03:08:16;;;;;;;7.05;5.95;;;12.20;95.10;;;;;;5079788;28;20236;-86
2021/09/05 03:10:44;;;;;;;6.55;5.43;;;12.00;96.20;;;;;;5077046;28;20229;-86
2021/09/05 03:13:15;;;;;;;7.20;5.88;;;12.30;94.80;;;;;;5079788;28;20205;-86
2021/09/05 03:15:43;;;;;;;8.40;6.85;;;12.30;95.00;;;;;;5078593;28;20316;-87
2021/09/05 03:18:10;;;;;;;7.40;6.60;;;12.10;94.80;;;;;;5081749;28;20224;-87
2021/09/05 03:20:37;;;;;;;9.32;6.07;;;12.00;95.30;;;;;;5071621;28;20316;-86
2021/09/05 03:23:04;;;;;;;8.07;6.25;;;12.10;95.40;;;;;;5090444;28;20201;-86
2021/09/05 03:25:31;;;;;;;7.22;5.97;;;12.20;95.10;;;;;;5077095;28;20303;-86
2021/09/05 03:28:00;;;;;;;6.90;6.20;;;12.20;94.80;;;;;;5081220;28;20205;-86
2021/09/05 03:30:27;;;;;;;6.50;5.50;;;11.90;95.30;;;;;;5072205;28;20308;-86
2021/09/05 03:32:53;;;;;;;6.05;5.35;;;11.70;96.10;;;;;;5061700;28;20312;-87
2021/09/05 03:35:21;;;;;;;6.15;5.53;;;11.80;96.10;;;;;;5077179;28;20244;-86
2021/09/05 03:37:48;;;;;;;6.43;5.57;;;11.60;96.10;;;;;;5085302;28;20549;-86
2021/09/05 03:40:15;;;;;;;7.20;5.40;;;11.60;97.10;;;;;;5081141;28;20286;-86
2021/09/05 03:42:42;;;;;;;6.53;5.43;;;12.20;96.20;;;;;;5080785;28;20378;-87
2021/09/05 03:45:12;;;;;;;6.90;5.20;;;12.50;94.50;;;;;;5076203;28;20284;-86
2021/09/05 03:47:39;;;;;;;6.20;5.40;;;12.50;94.30;;;;;;5080017;28;20268;-86
2021/09/05 03:50:07;;;;;;;6.55;5.47;;;12.40;94.20;;;;;;5079010;28;20221;-86
2021/09/05 03:52:35;;;;;;;6.35;5.75;;;12.50;94.10;;;;;;5081655;28;20660;-86
2021/09/05 03:55:06;;;;;;;6.68;5.47;;;12.50;94.10;;;;;;5081854;28;20221;-86
2021/09/05 03:57:33;;;;;;;6.05;5.43;;;12.70;93.50;;;;;;5080418;28;20197;-86
2021/09/05 04:00:00;;;;;;;7.45;5.63;;;12.60;93.40;;;;;;5081645;28;20308;-86
2021/09/05 04:02:28;;;;;;;5.85;5.05;;;12.50;93.80;;;;;;5079030;28;20189;-87
2021/09/05 04:04:55;;;;;;;6.53;5.40;;;12.50;93.80;;;;;;5077321;28;20231;-86
2021/09/05 04:07:22;;;;;;;6.32;5.18;;;12.40;93.80;;;;;;5078309;28;20264;-86
2021/09/05 04:12:34;;;;;;;6.10;5.15;;;12.40;93.60;;;;;;5080129;28;20191;-86
2021/09/05 04:15:01;;;;;;;6.38;5.22;;;12.20;93.60;;;;;;5079560;28;20759;-86
2021/09/05 04:17:29;;;;;;;6.70;5.68;;;12.10;94.20;;;;;;5086473;28;20264;-86
2021/09/05 04:19:56;;;;;;;7.07;5.40;;;11.90;95.00;;;;;;5078449;28;20301;-87
2021/09/05 04:22:23;;;;;;;5.35;4.85;;;11.90;95.40;;;;;;5080509;28;20193;-86
2021/09/05 04:24:50;;;;;;;7.28;5.10;;;12.00;95.10;;;;;;5079273;28;20292;-86
2021/09/05 04:27:18;;;;;;;6.00;4.97;;;12.20;93.90;;;;;;5081891;28;20695;-86
2021/09/05 04:29:45;;;;;;;5.32;4.80;;;12.10;94.10;;;;;;5078311;28;20297;-87
2021/09/05 04:32:12;;;;;;;6.43;4.78;;;12.40;93.80;;;;;;5080145;28;20301;-86
2021/09/05 04:34:40;;;;;;;7.88;5.45;;;12.80;92.70;;;;;;5080167;28;20229;-86
2021/09/05 04:37:08;;;;;;;5.82;5.22;;;12.80;92.20;;;;;;5079362;28;20265;-86
2021/09/05 04:39:35;;;;;;;6.95;4.95;;;12.40;92.60;;;;;;5078134;28;20227;-86
2021/09/05 04:42:03;;;;;;;7.10;5.38;;;12.20;93.70;;;;;;5083708;28;20215;-86
2021/09/05 04:44:30;;;;;;;5.88;4.95;;;12.10;93.80;;;;;;5081348;28;20244;-86
2021/09/05 04:46:57;;;;;;;6.03;5.10;;;12.00;94.50;;;;;;5081593;28;20284;-86
2021/09/05 04:49:24;;;;;;;6.50;5.35;;;11.90;94.30;;;;;;5073911;28;20223;-86
2021/09/05 04:51:52;;;;;;;5.72;5.13;;;11.80;94.50;;;;;;5078639;28;20299;-86
2021/09/05 04:54:19;;;;;;;7.50;5.22;;;11.70;94.90;;;;;;5080695;28;20293;-86
2021/09/05 04:56:47;;;;;;;5.80;5.18;;;11.50;95.30;;;;;;5080001;28;20201;-86
2021/09/05 04:59:14;;;;;;;6.18;5.50;;;11.70;95.70;;;;;;5078987;28;20256;-86
2021/09/05 05:01:41;;;;;;;6.57;4.95;;;11.80;95.40;;;;;;5082353;28;20216;-86
2021/09/05 05:04:08;;;;;;;5.53;4.97;;;11.80;94.90;;;;;;5080856;28;20284;-86
2021/09/05 05:06:36;;;;;;;5.85;5.05;;;11.90;94.70;;;;;;5067849;28;20643;-86
2021/09/05 05:09:04;;;;;;;8.07;5.53;;;11.90;94.90;;;;;;5078215;28;20303;-87
2021/09/05 05:11:31;;;;;;;8.18;5.35;;;12.00;94.40;;;;;;5081475;28;20235;-86
2021/09/05 05:13:59;;;;;;;5.50;4.90;;;12.10;94.50;;;;;;5078383;28;20262;-86
2021/09/05 05:16:26;;;;;;;6.50;5.00;;;12.10;94.00;;;;;;5074502;28;20313;-86
2021/09/05 05:18:53;;;;;;;6.32;5.40;;;12.10;94.50;;;;;;5073068;28;20225;-86
2021/09/05 05:21:20;;;;;;;7.32;4.93;;;12.00;94.30;;;;;;5069277;28;20231;-86
2021/09/05 05:23:47;;;;;;;6.25;4.97;;;12.10;95.00;;;;;;5083611;28;20209;-86
2021/09/05 05:26:16;;;;;;;5.93;5.32;;;12.30;94.80;;;;;;5079658;28;20225;-86
2021/09/05 05:28:43;;;;;;;6.57;5.20;;;12.30;93.40;;;;;;5074925;28;20204;-86
2021/09/05 05:31:11;;;;;;;6.22;5.63;;;12.20;94.10;;;;;;5076601;28;20728;-86
2021/09/05 05:33:37;;;;;;;6.57;5.65;;;12.10;95.00;;;;;;5077753;28;20304;-86
2021/09/05 05:36:05;;;;;;;6.68;5.53;;;12.10;94.70;;;;;;5073699;28;20253;-86
2021/09/05 05:38:33;;;;;;;6.40;5.43;;;12.00;95.70;;;;;;5078197;28;20200;-89
2021/09/05 05:41:00;;;;;;;6.82;5.07;;;12.30;95.60;;;;;;5076639;28;20775;-86
2021/09/05 05:43:28;;;;;;;6.63;4.95;;;13.00;94.30;;;;;;5079202;28;20211;-86
2021/09/05 05:45:55;;;;;;;7.78;5.53;;;13.00;93.30;;;;;;5081186;28;20931;-86
2021/09/05 05:48:22;;;;;;;7.68;5.00;;;12.90;94.00;;;;;;5080364;28;20626;-86
2021/09/05 05:50:52;;;;;;;8.82;5.93;;;12.80;94.30;;;;;;5087141;28;20221;-86
2021/09/05 05:53:19;;;;;;;5.82;5.22;;;12.80;94.50;;;;;;5083558;28;20189;-86
2021/09/05 05:55:46;;;;;;;5.72;5.10;;;13.00;94.20;;;;;;5084369;28;20647;-86
2021/09/05 05:58:13;;;;;;;5.68;5.10;;;13.10;93.80;;;;;;5082264;28;20220;-86
2021/09/05 06:00:43;;;;;;;5.88;5.18;;;13.00;94.10;;;;;;5079308;28;20239;-86
2021/09/05 06:03:10;;;;;;;6.50;5.68;;;13.00;94.40;;;;;;5080273;28;20225;-86
2021/09/05 06:05:37;;;;;;;7.15;5.80;;;12.90;94.80;;;;;;5080229;28;20281;-86
2021/09/05 06:08:05;;;;;;;7.22;5.43;;;13.00;95.30;;;;;;5079061;28;20212;-86
2021/09/05 06:10:33;;;;;;;5.90;5.30;;;12.90;95.50;;;;;;5073320;28;20312;-86
2021/09/05 06:13:00;;;;;;;7.68;5.22;;;12.90;95.80;;;;;;5078224;28;20235;-86
2021/09/05 06:15:30;;;;;;;7.57;6.10;;;12.90;96.10;;;;;;5078430;28;20221;-86
2021/09/05 06:17:59;;;;;;;8.70;6.03;;;13.10;96.20;;;;;;5076408;28;20201;-86
2021/09/05 06:20:27;;;;;;;6.13;5.47;;;13.20;95.80;;;;;;5084724;28;20220;-87
2021/09/05 06:22:54;;;;;;;7.22;5.88;;;13.30;95.70;;;;;;5089516;28;20280;-86
2021/09/05 06:25:21;;;;;;;6.28;5.63;;;13.30;95.70;;;;;;5074538;28;20316;-86
2021/09/05 06:27:49;;;;;;;6.50;5.47;;;13.40;95.60;;;;;;5081079;28;20665;-87
2021/09/05 06:30:16;;;;;;;6.80;5.85;;;13.40;95.70;;;;;;5079152;28;20696;-87
2021/09/05 06:32:43;;;;;;;6.50;5.90;;;13.40;96.00;;;;;;5079498;28;20623;-86
2021/09/05 06:35:12;;;;;;;5.80;5.20;;;13.70;95.30;;;;;;5081852;28;20760;-87
2021/09/05 06:37:39;;;;;;;6.75;5.30;;;13.90;95.00;;;;;;5080916;28;20261;-86
2021/09/05 06:40:07;;;;;;;7.47;5.63;;;14.10;94.60;;;;;;5082566;28;20762;-86
2021/09/05 06:42:34;;;;;;;6.15;5.40;;;14.20;94.40;;;;;;5073931;28;20292;-87
2021/09/05 06:45:01;;;;;;;6.88;5.50;;;14.40;93.70;;;;;;5078928;28;20722;-86
2021/09/05 06:47:28;;;;;;;7.68;5.82;;;14.40;94.10;;;;;;5089849;28;20240;-86
2021/09/05 06:49:55;;;;;;;8.25;6.07;;;14.40;94.40;;;;;;5077961;28;20311;-87
2021/09/05 06:52:24;;;;;;;8.38;6.05;;;14.40;94.60;;;;;;5079094;28;20197;-86
2021/09/05 06:54:51;;;;;;;6.43;5.82;;;14.50;94.10;;;;;;5072895;28;20224;-86
2021/09/05 06:57:18;;;;;;;7.05;6.35;;;14.70;93.90;;;;;;5079525;28;20292;-87
2021/09/05 06:59:45;;;;;;;7.65;6.45;;;14.70;94.00;;;;;;5071724;28;20755;-86
2021/09/05 07:02:17;;;;;;;7.18;6.00;;;14.60;94.10;;;;;;5071235;28;20653;-84
2021/09/05 07:04:43;;;;;;;9.93;6.72;;;14.60;94.30;;;;;;5073703;28;20224;-84
2021/09/05 07:07:11;;;;;;;8.63;6.60;;;14.60;94.50;;;;;;5072727;28;20220;-84
2021/09/05 07:09:39;;;;;;;8.02;6.38;;;14.70;94.30;;;;;;5071254;28;20237;-86
2021/09/05 07:12:07;;;;;;;8.35;6.65;;;14.70;94.50;;;;;;5073559;28;20304;-85
2021/09/05 07:14:34;;;;;;;9.63;7.05;;;14.80;94.60;;;;;;5071240;28;20220;-85
2021/09/05 07:17:02;;;;;;;8.40;7.18;;;14.80;94.70;;;;;;5071614;28;20284;-85
2021/09/05 07:19:29;;;;;;;7.93;7.13;;;14.90;94.50;;;;;;5068823;28;20309;-86
2021/09/05 07:21:56;;;;;;;7.72;6.93;;;15.00;94.20;;;;;;5070296;28;20671;-86
2021/09/05 07:24:23;;;;;;;9.88;6.93;;;15.10;93.90;;;;;;5068873;28;20211;-86
2021/09/05 07:26:52;;;;;;;8.40;6.18;;;15.20;93.40;;;;;;5071401;28;20747;-84
2021/09/05 07:29:21;;;;;;;9.70;6.75;;;15.40;93.40;;;;;;5068671;28;20207;-85
2021/09/05 07:31:48;;;;;;;7.53;6.78;;;15.70;92.60;;;;;;5074589;28;20261;-85
2021/09/05 07:34:15;;;;;;;8.80;6.95;;;16.30;91.80;;;;;;5074361;28;20289;-84
2021/09/05 07:36:42;;;;;;;7.63;6.82;;;16.70;90.20;;;;;;5076340;28;20221;-84
2021/09/05 07:39:10;;;;;;;7.90;6.38;;;16.90;87.40;;;;;;5074525;28;20206;-88
2021/09/05 07:41:37;;;;;;;10.75;6.90;;;16.90;87.00;;;;;;5073566;28;20309;-83
2021/09/05 07:44:06;;;;;;;7.78;6.97;;;16.80;87.30;;;;;;5076212;28;20677;-84
2021/09/05 07:46:33;;;;;;;7.35;6.65;;;16.70;88.30;;;;;;5074399;28;20248;-83
2021/09/05 07:48:59;;;;;;;8.48;6.85;;;16.60;91.40;;;;;;5073456;28;20675;-83
2021/09/05 07:51:26;;;;;;;7.60;6.90;;;16.70;91.20;;;;;;5072134;28;20233;-83
2021/09/05 07:53:54;;;;;;;7.07;6.25;;;16.70;90.00;;;;;;5076866;28;20279;-83
2021/09/05 07:56:21;;;;;;;7.35;6.57;;;16.70;90.40;;;;;;5078513;28;20217;-84
2021/09/05 07:58:49;;;;;;;7.22;6.53;;;16.70;91.80;;;;;;5073564;28;20202;-84
2021/09/05 08:01:17;;;;;;;7.97;6.28;;;16.80;91.30;;;;;;5077596;28;20229;-83
2021/09/05 08:03:46;;;;;;;7.90;6.63;;;16.80;91.00;;;;;;5080663;28;20291;-87
2021/09/05 08:06:13;;;;;;;7.28;6.57;;;16.90;90.40;;;;;;5072183;28;20232;-84
2021/09/05 08:08:40;;;;;;;8.40;6.72;;;17.00;89.50;;;;;;5075211;28;20296;-83
2021/09/05 08:11:08;;;;;;;7.00;6.35;;;17.10;86.00;;;;;;5076642;28;20225;-84
2021/09/05 08:13:35;;;;;;;8.30;6.75;;;17.20;85.20;;;;;;5073397;28;20284;-83
2021/09/05 08:16:13;;;;;;;8.77;6.75;;;17.20;84.10;;;;;;5071856;28;20256;-87
2021/09/05 08:18:41;;;;;;;8.30;6.70;;;17.30;83.60;;;;;;5077097;28;20256;-85
2021/09/05 08:21:09;;;;;;;8.00;6.75;;;17.30;82.80;;;;;;5068765;28;20224;-92
2021/09/05 08:23:38;;;;;;;7.10;6.40;;;17.40;79.00;;;;;;5074895;28;20208;-87
2021/09/05 08:26:06;;;;;;;8.45;6.95;;;17.50;78.60;;;;;;5073568;28;20312;-84
2021/09/05 08:28:36;;;;;;;8.05;7.15;;;17.50;78.10;;;;;;5074196;28;20250;-86
2021/09/05 08:31:04;;;;;;;9.95;7.15;;;17.50;77.80;;;;;;5079041;28;20225;-83
2021/09/05 08:33:31;;;;;;;8.20;6.70;;;17.60;77.60;;;;;;5084491;28;20217;-85
2021/09/05 08:36:00;;;;;;;8.27;7.35;;;17.70;79.20;;;;;;5070991;28;20224;-85
2021/09/05 08:38:27;;;;;;;9.13;7.00;;;17.90;77.20;;;;;;5076210;28;20201;-88
2021/09/05 08:40:54;;;;;;;7.65;6.38;;;17.90;77.70;;;;;;5076543;28;20738;-84
2021/09/05 08:43:22;;;;;;;8.10;6.53;;;18.00;77.40;;;;;;5078208;28;20224;-86
2021/09/05 08:45:49;;;;;;;7.18;6.47;;;18.20;72.70;;;;;;5077650;28;20228;-86
2021/09/05 08:48:18;;;;;;;8.52;6.65;;;18.30;71.00;;;;;;5079321;28;20304;-85
2021/09/05 08:50:46;;;;;;;7.93;7.07;;;18.50;73.90;;;;;;5075052;28;20233;-86
2021/09/05 08:53:17;;;;;;;7.43;6.60;;;18.60;71.50;;;;;;5074178;28;20204;-83
2021/09/05 08:55:45;;;;;;;9.25;7.38;;;18.70;73.20;;;;;;5058043;28;20230;-84
2021/09/05 08:58:13;;;;;;;8.77;6.90;;;18.70;66.80;;;;;;5079052;28;20208;-82
2021/09/05 09:00:41;;;;;;;9.07;6.90;;;18.90;66.40;;;;;;5075535;28;20233;-84
2021/09/05 09:03:07;;;;;;;7.30;6.60;;;19.20;67.30;;;;;;5066712;28;20280;-83
2021/09/05 09:05:36;;;;;;;6.97;6.00;;;19.70;58.30;;;;;;5072625;28;20221;-80
2021/09/05 09:08:06;;;;;;;7.03;6.32;;;20.90;54.30;;;;;;5072590;28;20557;-81
2021/09/05 09:10:34;;;;;;;6.32;5.72;;;22.50;43.80;;;;;;5075493;28;20223;-81
2021/09/05 09:13:01;;;;;;;6.80;5.53;;;24.00;38.40;;;;;;5066924;28;20203;-81
2021/09/05 09:15:30;;;;;;;6.10;5.60;;;26.60;32.10;;;;;;5065027;28;20640;-82
2021/09/05 09:17:58;;;;;;;7.10;6.50;;;27.60;26.90;;;;;;5071884;28;20225;-81
2021/09/05 09:20:46;;;;;;;6.65;6.05;;;29.80;20.70;;;;;;5075005;28;20228;-81
2021/09/05 09:23:18;;;;;;;8.98;8.18;;;30.90;17.90;;;;;;5074603;28;20210;-80
2021/09/05 09:26:01;;;;;;;7.70;6.90;;;32.30;17.70;;;;;;5081386;28;20280;-82
2021/09/05 09:28:34;;;;;;;6.75;6.15;;;31.80;17.50;;;;;;5089800;28;20196;-82
2021/09/05 09:31:05;;;;;;;7.68;6.97;;;31.70;17.50;;;;;;5078401;28;20384;-82
2021/09/05 09:33:32;;;;;;;7.70;7.05;;;32.10;16.20;;;;;;5072293;28;20213;-81
2021/09/05 09:36:00;;;;;;;7.15;6.55;;;31.70;17.40;;;;;;5076962;28;20227;-81
2021/09/05 09:38:28;;;;;;;7.93;6.60;;;31.80;16.30;;;;;;5081352;28;20219;-83
2021/09/05 09:41:12;;;;;;;7.05;6.50;;;32.20;16.20;;;;;;5097744;28;20236;-82
2021/09/05 09:43:58;;;;;;;6.90;6.30;;;33.00;15.60;;;;;;5090957;28;20208;-82
2021/09/05 09:46:26;;;;;;;7.63;7.00;;;33.20;14.40;;;;;;5073793;28;20220;-83
2021/09/05 09:48:56;;;;;;;8.45;7.63;;;32.00;17.10;;;;;;5075798;28;20196;-83
2021/09/05 09:51:24;;;;;;;6.70;6.20;;;32.10;16.10;;;;;;5078642;28;20315;-82
2021/09/05 09:53:52;;;;;;;9.13;8.27;;;32.30;16.60;;;;;;5086409;28;20211;-82
2021/09/05 09:56:21;;;;;;;7.70;7.10;;;32.70;15.80;;;;;;5075803;28;20229;-82
2021/09/05 09:58:48;;;;;;;7.72;7.03;;;33.00;15.10;;;;;;5085626;28;20604;-82
2021/09/05 10:01:17;;;;;;;7.75;7.15;;;32.30;15.80;;;;;;5081612;28;20221;-82
2021/09/05 10:03:45;;;;;;;7.78;7.07;;;31.20;17.20;;;;;;5073922;28;20211;-82
2021/09/05 10:06:14;;;;;;;7.65;6.88;;;30.30;18.30;;;;;;5071728;28;20227;-83
2021/09/05 10:08:42;;;;;;;7.95;7.32;;;31.40;17.30;;;;;;5080110;28;20207;-82
2021/09/05 10:11:11;;;;;;;7.20;6.70;;;32.30;17.70;;;;;;5079192;28;20239;-82
2021/09/05 10:13:41;;;;;;;7.25;6.65;;;32.10;16.30;;;;;;5075368;28;20198;-82
2021/09/05 10:16:09;;;;;;;6.55;6.10;;;31.70;17.00;;;;;;5073707;28;20216;-82
2021/09/05 10:18:40;;;;;;;7.47;6.85;;;31.80;17.60;;;;;;5081261;28;20199;-82
2021/09/05 10:21:07;;;;;;;7.18;6.47;;;31.20;18.10;;;;;;5075215;28;20327;-82
2021/09/05 10:23:36;;;;;;;7.20;6.50;;;31.70;18.10;;;;;;5078040;28;20197;-82
2021/09/05 10:26:08;;;;;;;7.20;6.60;;;32.80;18.00;;;;;;5074554;28;20590;-82
2021/09/05 10:28:37;;;;;;;8.00;7.40;;;33.00;16.50;;;;;;5080124;28;20774;-82
2021/09/05 10:31:06;;;;;;;6.97;6.30;;;32.40;15.50;;;;;;5075486;28;20707;-81
2021/09/05 10:33:36;;;;;;;6.60;6.10;;;31.60;17.40;;;;;;5075927;28;20309;-82
2021/09/05 10:36:06;;;;;;;6.85;6.22;;;31.70;17.40;;;;;;5075781;28;20232;-84
2021/09/05 10:38:34;;;;;;;7.38;6.30;;;31.30;17.30;;;;;;5076451;28;20204;-83
2021/09/05 10:41:03;;;;;;;10.60;9.73;;;31.40;17.30;;;;;;5072824;28;20251;-82
2021/09/05 10:44:03;;;;;;;6.60;6.07;;;31.80;17.60;;;;;;5074487;28;20203;-83
2021/09/05 10:46:34;;;;;;;6.82;6.03;;;30.20;18.10;;;;;;5071329;28;20582;-83
2021/09/05 10:49:01;;;;;;;6.80;6.30;;;30.50;18.40;;;;;;5072267;28;20201;-82
2021/09/05 10:51:33;;;;;;;6.45;5.93;;;30.60;18.90;;;;;;5075783;28;20224;-82
2021/09/05 10:54:01;;;;;;;7.45;6.72;;;30.50;18.50;;;;;;5071542;28;20199;-82
2021/09/05 10:56:29;;;;;;;7.28;6.63;;;30.70;18.40;;;;;;5070296;28;20228;-82
2021/09/05 10:58:57;;;;;;;10.75;9.63;;;30.10;17.50;;;;;;5078564;28;20620;-79
2021/09/05 11:01:31;;;;;;;6.15;5.63;;;30.90;19.80;;;;;;5074638;28;20220;-80
2021/09/05 11:04:18;;;;;;;7.05;6.10;;;30.10;18.30;;;;;;5071808;28;20188;-79
2021/09/05 11:06:45;;;;;;;6.10;5.60;;;29.40;19.20;;;;;;5067627;28;20221;-80
2021/09/05 11:09:47;;;;;;;6.20;5.60;;;29.10;22.50;;;;;;5069022;28;20197;-79
2021/09/05 11:12:23;;;;;;;6.38;5.78;;;28.50;22.40;;;;;;5064586;28;20634;-80
2021/09/05 11:14:58;;;;;;;7.78;6.38;;;28.00;22.50;;;;;;5070187;28;20231;-80
2021/09/05 11:17:27;;;;;;;6.32;5.72;;;27.30;24.70;;;;;;5070163;28;20262;-80
2021/09/05 11:19:57;;;;;;;6.00;5.50;;;26.50;25.40;;;;;;5078091;28;20255;-80
2021/09/05 11:22:26;;;;;;;11.88;10.75;;;26.30;26.20;;;;;;5071630;28;20687;-79
2021/09/05 11:25:13;;;;;;;6.32;5.70;;;25.90;29.80;;;;;;5067970;28;20283;-76
2021/09/05 11:27:46;;;;;;;6.50;5.57;;;25.40;29.20;;;;;;5075895;28;20280;-79
2021/09/05 11:30:14;;;;;;;7.22;5.72;;;25.30;27.50;;;;;;5068777;28;20235;-79
2021/09/05 11:32:48;;;;;;;9.32;6.18;;;25.20;28.50;;;;;;5067005;28;20231;-79
2021/09/05 11:35:15;;;;;;;10.35;9.38;;;25.00;29.60;;;;;;5069165;28;20216;-79
2021/09/05 11:37:43;;;;;;;6.47;4.90;;;25.10;31.80;;;;;;5072409;28;20284;-82
2021/09/05 11:40:13;;;;;;;6.20;5.60;;;24.80;28.60;;;;;;5072286;28;20325;-81
2021/09/05 11:42:44;;;;;;;6.93;5.80;;;24.80;28.50;;;;;;5079229;28;20263;-81
2021/09/05 11:45:12;;;;;;;5.70;4.95;;;24.70;29.10;;;;;;5075081;28;20221;-81
2021/09/05 11:47:39;;;;;;;5.47;4.97;;;24.30;27.30;;;;;;5084189;28;20214;-82
2021/09/05 11:50:09;;;;;;;6.75;5.18;;;24.30;27.20;;;;;;5080930;28;20284;-81
2021/09/05 11:52:39;;;;;;;5.20;4.70;;;24.00;25.80;;;;;;5083821;28;20273;-83
2021/09/05 11:55:08;;;;;;;7.00;4.82;;;24.20;26.80;;;;;;5083218;28;20279;-81
2021/09/05 11:57:36;;;;;;;5.93;4.90;;;24.40;27.10;;;;;;5081766;28;20200;-81
2021/09/05 12:00:07;;;;;;;5.25;4.75;;;24.40;24.80;;;;;;5079992;28;20600;-81
2021/09/05 12:02:35;;;;;;;7.95;4.70;;;24.20;26.50;;;;;;5085986;28;20284;-81
2021/09/05 12:05:04;;;;;;;5.38;4.88;;;24.10;26.20;;;;;;5081609;28;20226;-81
2021/09/05 12:07:37;;;;;;;5.78;4.28;;;24.20;26.80;;;;;;5084248;28;20261;-82
2021/09/05 12:10:07;;;;;;;4.78;4.38;;;24.30;25.40;;;;;;5088451;28;20861;-81
2021/09/05 12:12:34;;;;;;;5.10;4.60;;;24.30;27.50;;;;;;5083774;28;20260;-81
2021/09/05 12:15:12;;;;;;;5.63;4.68;;;24.30;26.50;;;;;;5082074;28;20316;-81
2021/09/05 12:17:43;;;;;;;5.20;4.70;;;24.20;27.20;;;;;;5084037;28;20260;-82
2021/09/05 12:20:10;;;;;;;6.28;5.00;;;24.40;28.20;;;;;;5076393;28;20308;-82
2021/09/05 12:22:44;;;;;;;6.28;5.13;;;24.60;27.40;;;;;;5080020;28;20225;-82
2021/09/05 12:25:22;;;;;;;5.20;4.70;;;24.60;26.30;;;;;;5076700;28;20220;-81
2021/09/05 12:27:58;;;;;;;5.15;4.65;;;24.60;27.00;;;;;;5077155;28;20205;-81
2021/09/05 12:30:27;;;;;;;5.53;5.03;;;24.50;28.00;;;;;;5078169;28;20224;-81
2021/09/05 12:33:12;;;;;;;5.55;4.97;;;24.50;26.50;;;;;;5077506;28;20217;-81
2021/09/05 12:35:40;;;;;;;6.85;4.53;;;24.70;26.80;;;;;;5074993;28;20228;-83
2021/09/05 12:38:11;;;;;;;5.25;4.60;;;24.70;27.90;;;;;;5076112;28;20197;-83
2021/09/05 12:40:40;;;;;;;5.63;4.82;;;24.70;27.90;;;;;;5075671;28;20312;-82
2021/09/05 12:43:07;;;;;;;5.32;4.82;;;24.30;26.50;;;;;;5083371;28;20295;-81
2021/09/05 12:45:35;;;;;;;7.13;4.65;;;23.80;27.00;;;;;;5086967;28;20293;-82
2021/09/05 12:48:13;;;;;;;5.25;4.70;;;23.70;28.50;;;;;;5088822;28;20647;-83
2021/09/05 12:50:41;;;;;;;6.50;4.88;;;23.90;27.50;;;;;;5079939;28;20234;-81
2021/09/05 12:53:17;;;;;;;5.30;4.80;;;23.90;27.50;;;;;;5086265;28;20205;-81
2021/09/05 12:55:45;;;;;;;5.35;4.75;;;24.00;27.80;;;;;;5082956;28;20243;-83